Manuel Derqui, Argentina
Current Conditions -  °F | °C
As of 12:00 AM on Wednesday 26 Nov 2014 (Local Time) from SARC Reporting Station
Clear Clear  
Wind Chill: 22°   Ceiling: Unl
Heat Index: 22°   Visibility: 6mi
Dew Point: 21°   Wind: 1mph
Humidity: 94%   Direction: 200°SSW
Pressure: 29.8"   Gusts: NA
Location:  27.83°S, 58.8°W
Report Text: SARC 260300Z 20001KT CAVOK 22/21 Q1009
Loading
Personal Weather Stations






























Interactive Weather Map New forecast layout! Learn more

10-Day Weather Forecast

Advertisements
Track Severe Weather on mobile